sensor_id;sensor_type;location;lat;lon;timestamp;P1;durP1;ratioP1;P2;durP2;ratioP2
37527;SDS011;23372;52.050;4.810;2023-01-05T00:01:54;29.80;;;5.07;;
37527;SDS011;23372;52.050;4.810;2023-01-05T00:04:19;27.83;;;4.23;;
37527;SDS011;23372;52.050;4.810;2023-01-05T00:06:45;27.67;;;4.47;;
37527;SDS011;23372;52.050;4.810;2023-01-05T00:09:12;32.30;;;4.90;;
37527;SDS011;23372;52.050;4.810;2023-01-05T00:11:39;34.00;;;8.53;;
37527;SDS011;23372;52.050;4.810;2023-01-05T00:14:25;27.47;;;5.67;;
37527;SDS011;23372;52.050;4.810;2023-01-05T00:17:11;28.47;;;4.20;;
37527;SDS011;23372;52.050;4.810;2023-01-05T00:19:57;24.27;;;4.40;;
37527;SDS011;23372;52.050;4.810;2023-01-05T00:22:49;29.90;;;4.63;;
37527;SDS011;23372;52.050;4.810;2023-01-05T00:25:17;29.40;;;4.90;;
37527;SDS011;23372;52.050;4.810;2023-01-05T00:27:43;32.33;;;5.17;;
37527;SDS011;23372;52.050;4.810;2023-01-05T00:30:13;26.00;;;5.20;;
37527;SDS011;23372;52.050;4.810;2023-01-05T00:32:40;33.53;;;6.10;;
37527;SDS011;23372;52.050;4.810;2023-01-05T00:35:06;31.23;;;6.20;;
37527;SDS011;23372;52.050;4.810;2023-01-05T00:37:33;35.60;;;6.50;;
37527;SDS011;23372;52.050;4.810;2023-01-05T00:40:00;31.67;;;5.20;;
37527;SDS011;23372;52.050;4.810;2023-01-05T00:42:26;28.70;;;5.10;;
37527;SDS011;23372;52.050;4.810;2023-01-05T00:44:52;27.70;;;6.37;;
37527;SDS011;23372;52.050;4.810;2023-01-05T00:47:17;31.33;;;5.77;;
37527;SDS011;23372;52.050;4.810;2023-01-05T00:49:43;33.97;;;5.57;;
37527;SDS011;23372;52.050;4.810;2023-01-05T00:52:08;27.07;;;5.00;;
37527;SDS011;23372;52.050;4.810;2023-01-05T00:54:34;35.87;;;5.60;;
37527;SDS011;23372;52.050;4.810;2023-01-05T00:57:00;26.43;;;5.23;;
37527;SDS011;23372;52.050;4.810;2023-01-05T00:59:26;31.23;;;5.33;;
37527;SDS011;23372;52.050;4.810;2023-01-05T01:01:51;31.13;;;5.17;;
37527;SDS011;23372;52.050;4.810;2023-01-05T01:04:18;26.63;;;4.60;;
37527;SDS011;23372;52.050;4.810;2023-01-05T01:06:44;28.07;;;5.07;;
37527;SDS011;23372;52.050;4.810;2023-01-05T01:09:11;27.87;;;4.30;;
37527;SDS011;23372;52.050;4.810;2023-01-05T01:11:38;28.03;;;5.23;;
37527;SDS011;23372;52.050;4.810;2023-01-05T01:14:04;36.97;;;5.60;;
37527;SDS011;23372;52.050;4.810;2023-01-05T01:16:31;33.17;;;5.70;;
37527;SDS011;23372;52.050;4.810;2023-01-05T01:18:58;29.40;;;5.37;;
37527;SDS011;23372;52.050;4.810;2023-01-05T01:21:23;32.03;;;5.53;;
37527;SDS011;23372;52.050;4.810;2023-01-05T01:23:49;36.60;;;5.17;;
37527;SDS011;23372;52.050;4.810;2023-01-05T01:26:15;49.03;;;8.00;;
37527;SDS011;23372;52.050;4.810;2023-01-05T01:28:40;33.20;;;5.50;;
37527;SDS011;23372;52.050;4.810;2023-01-05T01:31:06;29.93;;;5.77;;
37527;SDS011;23372;52.050;4.810;2023-01-05T01:33:32;33.90;;;5.17;;
37527;SDS011;23372;52.050;4.810;2023-01-05T01:36:02;33.83;;;6.50;;
37527;SDS011;23372;52.050;4.810;2023-01-05T01:38:29;34.07;;;5.43;;
37527;SDS011;23372;52.050;4.810;2023-01-05T01:40:55;36.73;;;6.73;;
37527;SDS011;23372;52.050;4.810;2023-01-05T01:46:06;28.40;;;6.07;;
37527;SDS011;23372;52.050;4.810;2023-01-05T01:48:32;28.03;;;5.07;;
37527;SDS011;23372;52.050;4.810;2023-01-05T01:51:00;37.47;;;6.60;;
37527;SDS011;23372;52.050;4.810;2023-01-05T01:53:29;23.17;;;4.67;;
37527;SDS011;23372;52.050;4.810;2023-01-05T01:56:00;29.73;;;4.77;;
37527;SDS011;23372;52.050;4.810;2023-01-05T01:58:29;32.27;;;5.33;;
37527;SDS011;23372;52.050;4.810;2023-01-05T02:00:56;39.13;;;7.07;;
37527;SDS011;23372;52.050;4.810;2023-01-05T02:03:24;33.87;;;6.50;;
37527;SDS011;23372;52.050;4.810;2023-01-05T02:05:52;39.50;;;5.87;;
37527;SDS011;23372;52.050;4.810;2023-01-05T02:08:18;31.27;;;7.20;;
37527;SDS011;23372;52.050;4.810;2023-01-05T02:16:33;32.67;;;5.43;;
37527;SDS011;23372;52.050;4.810;2023-01-05T02:30:26;29.97;;;4.93;;
37527;SDS011;23372;52.050;4.810;2023-01-05T02:36:11;22.77;;;5.30;;
37527;SDS011;23372;52.050;4.810;2023-01-05T02:38:49;34.27;;;4.60;;
37527;SDS011;23372;52.050;4.810;2023-01-05T02:41:40;27.97;;;6.20;;
37527;SDS011;23372;52.050;4.810;2023-01-05T02:44:14;30.00;;;4.80;;
37527;SDS011;23372;52.050;4.810;2023-01-05T02:46:41;29.87;;;4.70;;
37527;SDS011;23372;52.050;4.810;2023-01-05T02:49:06;27.57;;;5.33;;
37527;SDS011;23372;52.050;4.810;2023-01-05T02:51:35;29.70;;;4.50;;
37527;SDS011;23372;52.050;4.810;2023-01-05T02:54:13;37.63;;;7.53;;
37527;SDS011;23372;52.050;4.810;2023-01-05T02:56:49;23.33;;;5.07;;
37527;SDS011;23372;52.050;4.810;2023-01-05T02:59:21;29.53;;;4.10;;
37527;SDS011;23372;52.050;4.810;2023-01-05T03:01:58;30.30;;;5.13;;
37527;SDS011;23372;52.050;4.810;2023-01-05T03:04:30;27.70;;;4.17;;
37527;SDS011;23372;52.050;4.810;2023-01-05T03:07:06;21.70;;;4.30;;
37527;SDS011;23372;52.050;4.810;2023-01-05T03:09:36;35.63;;;4.70;;
37527;SDS011;23372;52.050;4.810;2023-01-05T03:14:51;32.90;;;5.87;;
37527;SDS011;23372;52.050;4.810;2023-01-05T03:17:26;22.87;;;4.47;;
37527;SDS011;23372;52.050;4.810;2023-01-05T03:19:56;34.63;;;4.83;;
37527;SDS011;23372;52.050;4.810;2023-01-05T03:22:23;29.23;;;5.07;;
37527;SDS011;23372;52.050;4.810;2023-01-05T03:25:12;24.50;;;4.37;;
37527;SDS011;23372;52.050;4.810;2023-01-05T03:28:00;29.43;;;6.07;;
37527;SDS011;23372;52.050;4.810;2023-01-05T03:31:30;25.67;;;4.40;;
37527;SDS011;23372;52.050;4.810;2023-01-05T03:36:49;29.93;;;5.87;;
37527;SDS011;23372;52.050;4.810;2023-01-05T03:39:20;37.90;;;5.97;;
37527;SDS011;23372;52.050;4.810;2023-01-05T03:41:50;26.83;;;4.27;;
37527;SDS011;23372;52.050;4.810;2023-01-05T03:44:16;21.77;;;4.00;;
37527;SDS011;23372;52.050;4.810;2023-01-05T03:46:42;26.30;;;4.80;;
37527;SDS011;23372;52.050;4.810;2023-01-05T03:49:08;23.93;;;4.73;;
37527;SDS011;23372;52.050;4.810;2023-01-05T03:51:34;22.40;;;4.77;;
37527;SDS011;23372;52.050;4.810;2023-01-05T03:53:59;28.20;;;4.97;;
37527;SDS011;23372;52.050;4.810;2023-01-05T03:56:25;21.90;;;4.03;;
37527;SDS011;23372;52.050;4.810;2023-01-05T03:58:50;27.70;;;4.63;;
37527;SDS011;23372;52.050;4.810;2023-01-05T04:01:16;27.13;;;4.73;;
37527;SDS011;23372;52.050;4.810;2023-01-05T04:03:41;29.13;;;5.03;;
37527;SDS011;23372;52.050;4.810;2023-01-05T04:06:07;28.77;;;4.47;;
37527;SDS011;23372;52.050;4.810;2023-01-05T04:08:33;23.87;;;4.67;;
37527;SDS011;23372;52.050;4.810;2023-01-05T04:11:21;29.53;;;4.90;;
37527;SDS011;23372;52.050;4.810;2023-01-05T04:13:45;30.27;;;4.07;;
37527;SDS011;23372;52.050;4.810;2023-01-05T04:16:11;26.87;;;5.03;;
37527;SDS011;23372;52.050;4.810;2023-01-05T04:18:38;31.47;;;5.50;;
37527;SDS011;23372;52.050;4.810;2023-01-05T04:21:03;28.13;;;4.53;;
37527;SDS011;23372;52.050;4.810;2023-01-05T04:23:30;28.03;;;5.53;;
37527;SDS011;23372;52.050;4.810;2023-01-05T04:25:56;28.40;;;4.70;;
37527;SDS011;23372;52.050;4.810;2023-01-05T04:28:22;29.37;;;4.33;;
37527;SDS011;23372;52.050;4.810;2023-01-05T04:30:48;23.23;;;4.37;;
37527;SDS011;23372;52.050;4.810;2023-01-05T04:33:15;24.23;;;4.90;;
37527;SDS011;23372;52.050;4.810;2023-01-05T04:35:41;33.57;;;5.77;;
37527;SDS011;23372;52.050;4.810;2023-01-05T04:38:06;28.20;;;4.77;;
37527;SDS011;23372;52.050;4.810;2023-01-05T04:40:32;35.67;;;5.80;;
37527;SDS011;23372;52.050;4.810;2023-01-05T04:42:57;31.73;;;5.63;;
37527;SDS011;23372;52.050;4.810;2023-01-05T04:45:23;24.57;;;5.80;;
37527;SDS011;23372;52.050;4.810;2023-01-05T04:47:49;28.83;;;5.10;;
37527;SDS011;23372;52.050;4.810;2023-01-05T04:50:15;32.63;;;4.93;;
37527;SDS011;23372;52.050;4.810;2023-01-05T04:52:41;28.87;;;4.47;;
37527;SDS011;23372;52.050;4.810;2023-01-05T04:55:06;32.93;;;4.60;;
37527;SDS011;23372;52.050;4.810;2023-01-05T04:57:32;22.93;;;4.53;;
37527;SDS011;23372;52.050;4.810;2023-01-05T04:59:58;28.83;;;3.93;;
37527;SDS011;23372;52.050;4.810;2023-01-05T05:02:24;31.70;;;4.90;;
37527;SDS011;23372;52.050;4.810;2023-01-05T05:04:49;28.77;;;4.80;;
37527;SDS011;23372;52.050;4.810;2023-01-05T05:07:15;34.23;;;5.93;;
37527;SDS011;23372;52.050;4.810;2023-01-05T05:09:40;36.30;;;5.63;;
37527;SDS011;23372;52.050;4.810;2023-01-05T05:12:06;29.63;;;4.70;;
37527;SDS011;23372;52.050;4.810;2023-01-05T05:14:32;28.30;;;4.50;;
37527;SDS011;23372;52.050;4.810;2023-01-05T05:16:57;28.53;;;4.13;;
37527;SDS011;23372;52.050;4.810;2023-01-05T05:19:23;29.43;;;6.10;;
37527;SDS011;23372;52.050;4.810;2023-01-05T05:21:48;29.93;;;5.57;;
37527;SDS011;23372;52.050;4.810;2023-01-05T05:24:14;31.57;;;4.20;;
37527;SDS011;23372;52.050;4.810;2023-01-05T05:26:40;33.63;;;4.93;;
37527;SDS011;23372;52.050;4.810;2023-01-05T05:29:05;28.90;;;4.27;;
37527;SDS011;23372;52.050;4.810;2023-01-05T05:31:31;32.63;;;4.57;;
37527;SDS011;23372;52.050;4.810;2023-01-05T05:33:56;25.83;;;4.87;;
37527;SDS011;23372;52.050;4.810;2023-01-05T05:36:22;35.53;;;6.13;;
37527;SDS011;23372;52.050;4.810;2023-01-05T05:38:47;27.13;;;4.63;;
37527;SDS011;23372;52.050;4.810;2023-01-05T05:41:13;29.00;;;5.00;;
37527;SDS011;23372;52.050;4.810;2023-01-05T05:43:39;38.70;;;6.77;;
37527;SDS011;23372;52.050;4.810;2023-01-05T05:46:04;38.53;;;5.87;;
37527;SDS011;23372;52.050;4.810;2023-01-05T05:48:30;29.87;;;5.10;;
37527;SDS011;23372;52.050;4.810;2023-01-05T05:50:56;23.30;;;5.50;;
37527;SDS011;23372;52.050;4.810;2023-01-05T05:53:21;29.57;;;5.90;;
37527;SDS011;23372;52.050;4.810;2023-01-05T05:55:47;31.20;;;5.50;;
37527;SDS011;23372;52.050;4.810;2023-01-05T05:58:14;39.40;;;7.70;;
37527;SDS011;23372;52.050;4.810;2023-01-05T06:00:39;26.00;;;5.27;;
37527;SDS011;23372;52.050;4.810;2023-01-05T06:03:05;30.23;;;5.20;;
37527;SDS011;23372;52.050;4.810;2023-01-05T06:05:31;28.73;;;4.87;;
37527;SDS011;23372;52.050;4.810;2023-01-05T06:07:56;34.93;;;5.03;;
37527;SDS011;23372;52.050;4.810;2023-01-05T06:10:22;29.07;;;6.67;;
37527;SDS011;23372;52.050;4.810;2023-01-05T06:12:48;39.23;;;6.03;;
37527;SDS011;23372;52.050;4.810;2023-01-05T06:15:14;36.43;;;5.40;;
37527;SDS011;23372;52.050;4.810;2023-01-05T06:17:39;29.13;;;5.90;;
37527;SDS011;23372;52.050;4.810;2023-01-05T06:20:05;28.60;;;5.43;;
37527;SDS011;23372;52.050;4.810;2023-01-05T06:22:32;33.90;;;4.97;;
37527;SDS011;23372;52.050;4.810;2023-01-05T06:24:58;32.13;;;4.77;;
37527;SDS011;23372;52.050;4.810;2023-01-05T06:27:23;32.67;;;5.80;;
37527;SDS011;23372;52.050;4.810;2023-01-05T06:29:49;34.83;;;5.93;;
37527;SDS011;23372;52.050;4.810;2023-01-05T06:32:14;30.07;;;6.17;;
37527;SDS011;23372;52.050;4.810;2023-01-05T06:34:40;33.73;;;5.90;;
37527;SDS011;23372;52.050;4.810;2023-01-05T06:37:05;33.70;;;6.13;;
37527;SDS011;23372;52.050;4.810;2023-01-05T06:39:31;20.77;;;4.53;;
37527;SDS011;23372;52.050;4.810;2023-01-05T06:41:57;30.17;;;4.80;;
37527;SDS011;23372;52.050;4.810;2023-01-05T06:44:22;24.53;;;4.67;;
37527;SDS011;23372;52.050;4.810;2023-01-05T06:46:48;32.83;;;6.20;;
37527;SDS011;23372;52.050;4.810;2023-01-05T06:49:13;27.77;;;5.43;;
37527;SDS011;23372;52.050;4.810;2023-01-05T06:51:39;28.53;;;4.30;;
37527;SDS011;23372;52.050;4.810;2023-01-05T06:54:05;24.77;;;4.90;;
37527;SDS011;23372;52.050;4.810;2023-01-05T06:56:31;34.00;;;5.40;;
37527;SDS011;23372;52.050;4.810;2023-01-05T06:58:56;31.30;;;4.27;;
37527;SDS011;23372;52.050;4.810;2023-01-05T07:01:22;27.80;;;4.47;;
37527;SDS011;23372;52.050;4.810;2023-01-05T07:03:47;35.30;;;4.77;;
37527;SDS011;23372;52.050;4.810;2023-01-05T07:06:13;42.90;;;5.77;;
37527;SDS011;23372;52.050;4.810;2023-01-05T07:08:39;28.17;;;4.20;;
37527;SDS011;23372;52.050;4.810;2023-01-05T07:11:05;35.83;;;4.37;;
37527;SDS011;23372;52.050;4.810;2023-01-05T07:13:31;29.83;;;5.70;;
37527;SDS011;23372;52.050;4.810;2023-01-05T07:15:57;29.33;;;4.50;;
37527;SDS011;23372;52.050;4.810;2023-01-05T07:18:23;26.50;;;5.00;;
37527;SDS011;23372;52.050;4.810;2023-01-05T07:20:48;34.03;;;6.97;;
37527;SDS011;23372;52.050;4.810;2023-01-05T07:23:14;30.53;;;4.50;;
37527;SDS011;23372;52.050;4.810;2023-01-05T07:25:39;27.10;;;5.27;;
37527;SDS011;23372;52.050;4.810;2023-01-05T07:28:05;30.30;;;4.93;;
37527;SDS011;23372;52.050;4.810;2023-01-05T07:30:31;26.60;;;5.63;;
37527;SDS011;23372;52.050;4.810;2023-01-05T07:32:57;27.60;;;4.57;;
37527;SDS011;23372;52.050;4.810;2023-01-05T07:35:23;33.57;;;4.53;;
37527;SDS011;23372;52.050;4.810;2023-01-05T07:37:49;30.13;;;4.30;;
37527;SDS011;23372;52.050;4.810;2023-01-05T07:40:14;30.33;;;5.50;;
37527;SDS011;23372;52.050;4.810;2023-01-05T07:42:40;26.93;;;4.23;;
37527;SDS011;23372;52.050;4.810;2023-01-05T07:45:06;32.33;;;5.50;;
37527;SDS011;23372;52.050;4.810;2023-01-05T07:47:33;26.23;;;5.17;;
37527;SDS011;23372;52.050;4.810;2023-01-05T07:49:59;37.30;;;6.27;;
37527;SDS011;23372;52.050;4.810;2023-01-05T07:52:24;38.83;;;6.17;;
37527;SDS011;23372;52.050;4.810;2023-01-05T07:54:53;24.47;;;4.83;;
37527;SDS011;23372;52.050;4.810;2023-01-05T07:57:19;33.13;;;5.30;;
37527;SDS011;23372;52.050;4.810;2023-01-05T07:59:44;25.10;;;3.93;;
37527;SDS011;23372;52.050;4.810;2023-01-05T08:02:10;37.97;;;5.37;;
37527;SDS011;23372;52.050;4.810;2023-01-05T08:04:35;26.53;;;5.30;;
37527;SDS011;23372;52.050;4.810;2023-01-05T08:07:01;43.60;;;5.77;;
37527;SDS011;23372;52.050;4.810;2023-01-05T08:09:27;30.17;;;5.63;;
37527;SDS011;23372;52.050;4.810;2023-01-05T08:12:11;35.57;;;5.67;;
37527;SDS011;23372;52.050;4.810;2023-01-05T08:14:36;28.60;;;5.70;;
37527;SDS011;23372;52.050;4.810;2023-01-05T08:17:02;31.83;;;5.53;;
37527;SDS011;23372;52.050;4.810;2023-01-05T08:19:27;25.83;;;4.77;;
37527;SDS011;23372;52.050;4.810;2023-01-05T08:21:53;31.37;;;5.97;;
37527;SDS011;23372;52.050;4.810;2023-01-05T08:24:18;35.20;;;7.70;;
37527;SDS011;23372;52.050;4.810;2023-01-05T08:26:44;32.90;;;5.43;;
37527;SDS011;23372;52.050;4.810;2023-01-05T08:29:10;36.47;;;5.60;;
37527;SDS011;23372;52.050;4.810;2023-01-05T08:31:37;29.13;;;5.00;;
37527;SDS011;23372;52.050;4.810;2023-01-05T08:34:03;32.50;;;5.23;;
37527;SDS011;23372;52.050;4.810;2023-01-05T08:36:30;26.07;;;5.17;;
37527;SDS011;23372;52.050;4.810;2023-01-05T08:38:56;37.03;;;4.67;;
37527;SDS011;23372;52.050;4.810;2023-01-05T08:41:25;35.30;;;5.77;;
37527;SDS011;23372;52.050;4.810;2023-01-05T08:43:54;27.43;;;6.40;;
37527;SDS011;23372;52.050;4.810;2023-01-05T08:46:22;30.87;;;4.87;;
37527;SDS011;23372;52.050;4.810;2023-01-05T08:48:49;23.67;;;5.27;;
37527;SDS011;23372;52.050;4.810;2023-01-05T08:51:16;26.43;;;5.00;;
37527;SDS011;23372;52.050;4.810;2023-01-05T08:53:43;33.70;;;6.17;;
37527;SDS011;23372;52.050;4.810;2023-01-05T08:56:09;33.43;;;5.17;;
37527;SDS011;23372;52.050;4.810;2023-01-05T08:58:38;19.27;;;4.90;;
37527;SDS011;23372;52.050;4.810;2023-01-05T09:01:07;32.57;;;4.33;;
37527;SDS011;23372;52.050;4.810;2023-01-05T09:03:34;27.77;;;5.20;;
37527;SDS011;23372;52.050;4.810;2023-01-05T09:06:00;29.57;;;4.67;;
37527;SDS011;23372;52.050;4.810;2023-01-05T09:08:30;29.27;;;4.87;;
37527;SDS011;23372;52.050;4.810;2023-01-05T09:11:17;25.37;;;4.27;;
37527;SDS011;23372;52.050;4.810;2023-01-05T09:13:57;32.07;;;5.13;;
37527;SDS011;23372;52.050;4.810;2023-01-05T09:16:25;33.73;;;4.87;;
37527;SDS011;23372;52.050;4.810;2023-01-05T09:18:53;22.90;;;4.80;;
37527;SDS011;23372;52.050;4.810;2023-01-05T09:21:21;28.40;;;4.87;;
37527;SDS011;23372;52.050;4.810;2023-01-05T09:23:46;30.87;;;4.53;;
37527;SDS011;23372;52.050;4.810;2023-01-05T09:26:12;32.43;;;4.40;;
37527;SDS011;23372;52.050;4.810;2023-01-05T09:28:39;38.53;;;5.33;;
37527;SDS011;23372;52.050;4.810;2023-01-05T09:31:06;31.53;;;6.00;;
37527;SDS011;23372;52.050;4.810;2023-01-05T09:33:32;27.90;;;6.13;;
37527;SDS011;23372;52.050;4.810;2023-01-05T09:35:58;41.17;;;7.43;;
37527;SDS011;23372;52.050;4.810;2023-01-05T09:38:23;24.87;;;4.43;;
37527;SDS011;23372;52.050;4.810;2023-01-05T09:40:50;25.00;;;5.47;;
37527;SDS011;23372;52.050;4.810;2023-01-05T09:43:28;32.03;;;5.20;;
37527;SDS011;23372;52.050;4.810;2023-01-05T09:45:58;35.33;;;5.60;;
37527;SDS011;23372;52.050;4.810;2023-01-05T09:48:25;31.13;;;5.90;;
37527;SDS011;23372;52.050;4.810;2023-01-05T09:50:51;25.70;;;5.47;;
37527;SDS011;23372;52.050;4.810;2023-01-05T09:53:18;26.70;;;4.77;;
37527;SDS011;23372;52.050;4.810;2023-01-05T09:55:52;33.37;;;6.07;;
37527;SDS011;23372;52.050;4.810;2023-01-05T09:58:19;30.67;;;6.07;;
37527;SDS011;23372;52.050;4.810;2023-01-05T10:03:58;30.37;;;4.73;;
37527;SDS011;23372;52.050;4.810;2023-01-05T10:06:32;31.90;;;5.50;;
37527;SDS011;23372;52.050;4.810;2023-01-05T10:09:02;30.37;;;6.10;;
37527;SDS011;23372;52.050;4.810;2023-01-05T10:14:46;36.00;;;5.70;;
37527;SDS011;23372;52.050;4.810;2023-01-05T10:17:34;30.60;;;5.07;;
37527;SDS011;23372;52.050;4.810;2023-01-05T10:20:05;32.13;;;5.33;;
37527;SDS011;23372;52.050;4.810;2023-01-05T10:28:24;28.80;;;5.40;;
37527;SDS011;23372;52.050;4.810;2023-01-05T10:30:58;26.33;;;4.70;;
37527;SDS011;23372;52.050;4.810;2023-01-05T10:36:34;26.17;;;4.43;;
37527;SDS011;23372;52.050;4.810;2023-01-05T10:41:37;30.37;;;5.70;;
37527;SDS011;23372;52.050;4.810;2023-01-05T10:46:55;38.27;;;6.43;;
37527;SDS011;23372;52.050;4.810;2023-01-05T10:49:28;32.30;;;5.50;;
37527;SDS011;23372;52.050;4.810;2023-01-05T10:51:56;34.97;;;6.30;;
37527;SDS011;23372;52.050;4.810;2023-01-05T10:54:39;33.63;;;6.53;;
37527;SDS011;23372;52.050;4.810;2023-01-05T10:59:54;27.77;;;5.03;;
37527;SDS011;23372;52.050;4.810;2023-01-05T11:02:21;34.70;;;6.23;;
37527;SDS011;23372;52.050;4.810;2023-01-05T11:04:49;31.00;;;5.63;;
37527;SDS011;23372;52.050;4.810;2023-01-05T11:07:15;26.37;;;5.83;;
37527;SDS011;23372;52.050;4.810;2023-01-05T11:09:41;28.60;;;5.53;;
37527;SDS011;23372;52.050;4.810;2023-01-05T11:12:17;34.53;;;6.90;;
37527;SDS011;23372;52.050;4.810;2023-01-05T11:14:49;34.27;;;6.57;;
37527;SDS011;23372;52.050;4.810;2023-01-05T11:17:18;29.73;;;5.87;;
37527;SDS011;23372;52.050;4.810;2023-01-05T11:19:47;33.33;;;6.73;;
37527;SDS011;23372;52.050;4.810;2023-01-05T11:22:28;37.97;;;5.40;;
37527;SDS011;23372;52.050;4.810;2023-01-05T11:28:10;29.83;;;5.77;;
37527;SDS011;23372;52.050;4.810;2023-01-05T11:30:57;36.43;;;7.67;;
37527;SDS011;23372;52.050;4.810;2023-01-05T11:33:26;27.57;;;6.50;;
37527;SDS011;23372;52.050;4.810;2023-01-05T11:35:53;36.83;;;6.50;;
37527;SDS011;23372;52.050;4.810;2023-01-05T11:38:24;34.60;;;5.57;;
37527;SDS011;23372;52.050;4.810;2023-01-05T11:40:57;27.93;;;4.93;;
37527;SDS011;23372;52.050;4.810;2023-01-05T11:43:25;46.40;;;6.17;;
37527;SDS011;23372;52.050;4.810;2023-01-05T11:45:55;31.00;;;5.47;;
37527;SDS011;23372;52.050;4.810;2023-01-05T11:48:24;29.80;;;6.17;;
37527;SDS011;23372;52.050;4.810;2023-01-05T11:50:53;25.17;;;6.03;;
37527;SDS011;23372;52.050;4.810;2023-01-05T11:53:22;35.17;;;7.00;;
37527;SDS011;23372;52.050;4.810;2023-01-05T11:56:21;28.00;;;4.50;;
37527;SDS011;23372;52.050;4.810;2023-01-05T11:58:49;32.23;;;5.73;;
37527;SDS011;23372;52.050;4.810;2023-01-05T12:04:09;38.10;;;5.30;;
37527;SDS011;23372;52.050;4.810;2023-01-05T12:07:11;33.80;;;5.20;;
37527;SDS011;23372;52.050;4.810;2023-01-05T12:09:39;26.90;;;5.23;;
37527;SDS011;23372;52.050;4.810;2023-01-05T12:12:26;27.80;;;5.73;;
37527;SDS011;23372;52.050;4.810;2023-01-05T12:31:30;35.57;;;6.17;;
37527;SDS011;23372;52.050;4.810;2023-01-05T12:40:06;41.30;;;6.10;;
37527;SDS011;23372;52.050;4.810;2023-01-05T12:42:57;28.93;;;5.80;;
37527;SDS011;23372;52.050;4.810;2023-01-05T12:48:22;37.60;;;5.57;;
37527;SDS011;23372;52.050;4.810;2023-01-05T12:51:04;33.57;;;5.97;;
37527;SDS011;23372;52.050;4.810;2023-01-05T12:56:29;40.40;;;6.77;;
37527;SDS011;23372;52.050;4.810;2023-01-05T13:01:37;39.60;;;5.90;;
37527;SDS011;23372;52.050;4.810;2023-01-05T13:04:28;35.63;;;5.33;;
37527;SDS011;23372;52.050;4.810;2023-01-05T13:06:56;33.20;;;5.20;;
37527;SDS011;23372;52.050;4.810;2023-01-05T13:09:25;31.53;;;5.53;;
37527;SDS011;23372;52.050;4.810;2023-01-05T13:11:59;36.27;;;6.30;;
37527;SDS011;23372;52.050;4.810;2023-01-05T13:14:32;37.70;;;5.90;;
37527;SDS011;23372;52.050;4.810;2023-01-05T13:17:06;36.73;;;5.60;;
37527;SDS011;23372;52.050;4.810;2023-01-05T13:19:46;23.60;;;5.00;;
37527;SDS011;23372;52.050;4.810;2023-01-05T13:22:21;28.17;;;5.47;;
37527;SDS011;23372;52.050;4.810;2023-01-05T13:24:57;35.43;;;5.40;;
37527;SDS011;23372;52.050;4.810;2023-01-05T13:27:24;35.67;;;7.47;;
37527;SDS011;23372;52.050;4.810;2023-01-05T13:29:53;34.47;;;5.97;;
37527;SDS011;23372;52.050;4.810;2023-01-05T13:35:21;45.70;;;7.17;;
37527;SDS011;23372;52.050;4.810;2023-01-05T13:43:38;34.47;;;6.37;;
37527;SDS011;23372;52.050;4.810;2023-01-05T13:49:01;39.60;;;7.37;;
37527;SDS011;23372;52.050;4.810;2023-01-05T13:54:39;34.80;;;5.67;;
37527;SDS011;23372;52.050;4.810;2023-01-05T13:57:12;45.77;;;8.93;;
37527;SDS011;23372;52.050;4.810;2023-01-05T13:59:41;29.13;;;4.90;;
37527;SDS011;23372;52.050;4.810;2023-01-05T14:02:27;33.00;;;5.37;;
37527;SDS011;23372;52.050;4.810;2023-01-05T14:05:22;48.73;;;6.73;;
37527;SDS011;23372;52.050;4.810;2023-01-05T14:07:49;35.33;;;8.23;;
37527;SDS011;23372;52.050;4.810;2023-01-05T14:10:18;30.07;;;6.77;;
37527;SDS011;23372;52.050;4.810;2023-01-05T14:12:47;40.40;;;8.40;;
37527;SDS011;23372;52.050;4.810;2023-01-05T14:18:06;30.93;;;4.97;;
37527;SDS011;23372;52.050;4.810;2023-01-05T14:20:45;32.43;;;5.87;;
37527;SDS011;23372;52.050;4.810;2023-01-05T14:38:49;33.10;;;5.87;;
37527;SDS011;23372;52.050;4.810;2023-01-05T14:41:14;34.27;;;5.77;;
37527;SDS011;23372;52.050;4.810;2023-01-05T14:43:57;40.17;;;7.10;;
37527;SDS011;23372;52.050;4.810;2023-01-05T14:46:27;34.13;;;6.50;;
37527;SDS011;23372;52.050;4.810;2023-01-05T14:49:06;28.47;;;5.20;;
37527;SDS011;23372;52.050;4.810;2023-01-05T14:51:40;32.77;;;6.30;;
37527;SDS011;23372;52.050;4.810;2023-01-05T14:54:33;30.37;;;5.97;;
37527;SDS011;23372;52.050;4.810;2023-01-05T15:00:12;23.93;;;5.43;;
37527;SDS011;23372;52.050;4.810;2023-01-05T15:05:57;37.73;;;5.93;;
37527;SDS011;23372;52.050;4.810;2023-01-05T15:08:40;29.37;;;5.40;;
37527;SDS011;23372;52.050;4.810;2023-01-05T15:19:55;34.20;;;6.40;;
37527;SDS011;23372;52.050;4.810;2023-01-05T15:25:33;30.30;;;4.63;;
37527;SDS011;23372;52.050;4.810;2023-01-05T15:31:28;38.60;;;5.90;;
37527;SDS011;23372;52.050;4.810;2023-01-05T15:34:04;29.80;;;5.17;;
37527;SDS011;23372;52.050;4.810;2023-01-05T15:39:21;25.17;;;5.03;;
37527;SDS011;23372;52.050;4.810;2023-01-05T15:41:49;25.40;;;4.80;;
37527;SDS011;23372;52.050;4.810;2023-01-05T15:44:16;29.87;;;5.17;;
37527;SDS011;23372;52.050;4.810;2023-01-05T15:46:43;26.67;;;5.37;;
37527;SDS011;23372;52.050;4.810;2023-01-05T15:49:16;26.43;;;4.37;;
37527;SDS011;23372;52.050;4.810;2023-01-05T15:51:54;19.10;;;3.70;;
37527;SDS011;23372;52.050;4.810;2023-01-05T15:54:21;20.43;;;3.70;;
37527;SDS011;23372;52.050;4.810;2023-01-05T15:56:49;24.23;;;4.13;;
37527;SDS011;23372;52.050;4.810;2023-01-05T15:59:33;18.23;;;3.53;;
37527;SDS011;23372;52.050;4.810;2023-01-05T16:07:52;29.37;;;5.40;;
37527;SDS011;23372;52.050;4.810;2023-01-05T16:13:02;28.07;;;4.93;;
37527;SDS011;23372;52.050;4.810;2023-01-05T16:15:33;32.33;;;7.63;;
37527;SDS011;23372;52.050;4.810;2023-01-05T16:18:01;33.40;;;5.20;;
37527;SDS011;23372;52.050;4.810;2023-01-05T16:20:30;27.00;;;5.60;;
37527;SDS011;23372;52.050;4.810;2023-01-05T16:25:23;19.10;;;6.33;;
37527;SDS011;23372;52.050;4.810;2023-01-05T16:27:52;32.43;;;7.77;;
37527;SDS011;23372;52.050;4.810;2023-01-05T16:30:39;28.83;;;7.90;;
37527;SDS011;23372;52.050;4.810;2023-01-05T16:36:23;37.83;;;8.60;;
37527;SDS011;23372;52.050;4.810;2023-01-05T16:38:45;33.03;;;9.10;;
37527;SDS011;23372;52.050;4.810;2023-01-05T16:41:21;37.60;;;10.20;;
37527;SDS011;23372;52.050;4.810;2023-01-05T16:48:56;37.63;;;12.03;;
37527;SDS011;23372;52.050;4.810;2023-01-05T16:54:03;41.90;;;15.20;;
37527;SDS011;23372;52.050;4.810;2023-01-05T16:59:01;51.23;;;17.57;;
37527;SDS011;23372;52.050;4.810;2023-01-05T17:01:47;40.87;;;16.23;;
37527;SDS011;23372;52.050;4.810;2023-01-05T17:04:13;41.67;;;16.23;;
37527;SDS011;23372;52.050;4.810;2023-01-05T17:06:40;52.70;;;16.63;;
37527;SDS011;23372;52.050;4.810;2023-01-05T17:09:26;45.47;;;16.60;;
37527;SDS011;23372;52.050;4.810;2023-01-05T17:11:54;49.47;;;16.37;;
37527;SDS011;23372;52.050;4.810;2023-01-05T17:14:20;47.83;;;16.03;;
37527;SDS011;23372;52.050;4.810;2023-01-05T17:16:47;45.83;;;16.40;;
37527;SDS011;23372;52.050;4.810;2023-01-05T17:19:17;49.63;;;18.10;;
37527;SDS011;23372;52.050;4.810;2023-01-05T17:21:45;46.60;;;17.87;;
37527;SDS011;23372;52.050;4.810;2023-01-05T17:24:19;42.10;;;15.93;;
37527;SDS011;23372;52.050;4.810;2023-01-05T17:26:44;45.23;;;14.67;;
37527;SDS011;23372;52.050;4.810;2023-01-05T17:29:16;40.20;;;15.47;;
37527;SDS011;23372;52.050;4.810;2023-01-05T17:31:44;38.50;;;15.90;;
37527;SDS011;23372;52.050;4.810;2023-01-05T17:34:09;40.93;;;16.20;;
37527;SDS011;23372;52.050;4.810;2023-01-05T17:36:35;48.10;;;17.37;;
37527;SDS011;23372;52.050;4.810;2023-01-05T17:39:00;41.40;;;15.80;;